sensor_id;sensor_type;location;lat;lon;timestamp;pressure;altitude;pressure_sealevel;temperature;humidity
60373;BME280;46216;52.220;5.134;2022-07-29T00:00:07;101934.75;;;17.32;100.00
60373;BME280;46216;52.220;5.134;2022-07-29T00:02:33;101929.66;;;17.29;100.00
60373;BME280;46216;52.220;5.134;2022-07-29T00:04:58;101930.41;;;17.20;100.00
60373;BME280;46216;52.220;5.134;2022-07-29T00:07:24;101928.75;;;17.29;100.00
60373;BME280;46216;52.220;5.134;2022-07-29T00:09:50;101926.72;;;17.21;100.00
60373;BME280;46216;52.220;5.134;2022-07-29T00:12:16;101928.75;;;17.29;100.00
60373;BME280;46216;52.220;5.134;2022-07-29T00:14:44;101921.59;;;17.18;100.00
60373;BME280;46216;52.220;5.134;2022-07-29T00:17:09;101923.69;;;17.14;100.00
60373;BME280;46216;52.220;5.134;2022-07-29T00:19:34;101915.94;;;17.21;100.00
60373;BME280;46216;52.220;5.134;2022-07-29T00:22:00;101917.19;;;17.17;100.00
60373;BME280;46216;52.220;5.134;2022-07-29T00:24:26;101915.50;;;17.16;100.00
60373;BME280;46216;52.220;5.134;2022-07-29T00:26:51;101919.03;;;17.16;100.00
60373;BME280;46216;52.220;5.134;2022-07-29T00:29:17;101909.09;;;17.17;100.00
60373;BME280;46216;52.220;5.134;2022-07-29T00:31:42;101908.00;;;17.19;100.00
60373;BME280;46216;52.220;5.134;2022-07-29T00:34:08;101901.66;;;17.09;100.00
60373;BME280;46216;52.220;5.134;2022-07-29T00:36:53;101891.75;;;17.10;100.00
60373;BME280;46216;52.220;5.134;2022-07-29T00:39:18;101898.59;;;17.14;100.00
60373;BME280;46216;52.220;5.134;2022-07-29T00:41:43;101892.50;;;17.00;100.00
60373;BME280;46216;52.220;5.134;2022-07-29T00:44:09;101895.44;;;16.97;100.00
60373;BME280;46216;52.220;5.134;2022-07-29T00:46:34;101895.34;;;16.99;100.00
60373;BME280;46216;52.220;5.134;2022-07-29T00:48:59;101897.34;;;16.86;100.00
60373;BME280;46216;52.220;5.134;2022-07-29T00:51:26;101886.56;;;16.86;100.00
60373;BME280;46216;52.220;5.134;2022-07-29T00:53:52;101887.22;;;16.78;100.00
60373;BME280;46216;52.220;5.134;2022-07-29T00:56:18;101880.09;;;16.77;100.00
60373;BME280;46216;52.220;5.134;2022-07-29T00:58:43;101881.44;;;16.83;100.00
60373;BME280;46216;52.220;5.134;2022-07-29T01:01:10;101886.72;;;16.62;100.00
60373;BME280;46216;52.220;5.134;2022-07-29T01:03:35;101881.94;;;16.76;100.00
60373;BME280;46216;52.220;5.134;2022-07-29T01:06:00;101886.81;;;16.71;100.00
60373;BME280;46216;52.220;5.134;2022-07-29T01:08:25;101882.66;;;16.67;100.00
60373;BME280;46216;52.220;5.134;2022-07-29T01:10:51;101890.88;;;16.77;100.00
60373;BME280;46216;52.220;5.134;2022-07-29T01:13:18;101884.50;;;16.67;100.00
60373;BME280;46216;52.220;5.134;2022-07-29T01:15:49;101881.19;;;16.74;100.00
60373;BME280;46216;52.220;5.134;2022-07-29T01:18:22;101877.75;;;16.72;100.00
60373;BME280;46216;52.220;5.134;2022-07-29T01:32:31;101873.47;;;16.70;100.00
60373;BME280;46216;52.220;5.134;2022-07-29T01:35:03;101872.88;;;16.66;100.00
60373;BME280;46216;52.220;5.134;2022-07-29T01:37:38;101871.78;;;16.69;100.00
60373;BME280;46216;52.220;5.134;2022-07-29T01:40:12;101876.06;;;16.71;100.00
60373;BME280;46216;52.220;5.134;2022-07-29T01:42:45;101880.72;;;16.58;100.00
60373;BME280;46216;52.220;5.134;2022-07-29T01:45:21;101880.94;;;16.66;100.00
60373;BME280;46216;52.220;5.134;2022-07-29T01:48:04;101876.56;;;16.65;100.00
60373;BME280;46216;52.220;5.134;2022-07-29T01:50:34;101874.59;;;16.56;100.00
60373;BME280;46216;52.220;5.134;2022-07-29T01:53:04;101868.84;;;16.61;100.00
60373;BME280;46216;52.220;5.134;2022-07-29T01:55:35;101874.22;;;16.61;100.00
60373;BME280;46216;52.220;5.134;2022-07-29T01:58:03;101869.81;;;16.60;100.00
60373;BME280;46216;52.220;5.134;2022-07-29T02:00:32;101870.22;;;16.55;100.00
60373;BME280;46216;52.220;5.134;2022-07-29T02:02:59;101875.84;;;16.52;100.00
60373;BME280;46216;52.220;5.134;2022-07-29T02:05:26;101872.16;;;16.53;100.00
60373;BME280;46216;52.220;5.134;2022-07-29T02:07:53;101870.31;;;16.53;100.00
60373;BME280;46216;52.220;5.134;2022-07-29T02:10:23;101877.31;;;16.45;100.00
60373;BME280;46216;52.220;5.134;2022-07-29T02:12:51;101874.03;;;16.41;100.00
60373;BME280;46216;52.220;5.134;2022-07-29T02:15:19;101874.28;;;16.38;100.00
60373;BME280;46216;52.220;5.134;2022-07-29T02:18:05;101872.44;;;16.39;100.00
60373;BME280;46216;52.220;5.134;2022-07-29T02:20:33;101874.50;;;16.46;100.00
60373;BME280;46216;52.220;5.134;2022-07-29T02:22:59;101866.91;;;16.51;100.00
60373;BME280;46216;52.220;5.134;2022-07-29T02:25:26;101871.81;;;16.46;100.00
60373;BME280;46216;52.220;5.134;2022-07-29T02:27:54;101875.72;;;16.42;100.00
60373;BME280;46216;52.220;5.134;2022-07-29T02:30:21;101869.00;;;16.48;100.00
60373;BME280;46216;52.220;5.134;2022-07-29T02:32:48;101873.53;;;16.47;100.00
60373;BME280;46216;52.220;5.134;2022-07-29T02:35:15;101863.88;;;16.45;100.00
60373;BME280;46216;52.220;5.134;2022-07-29T02:37:43;101866.56;;;16.45;100.00
60373;BME280;46216;52.220;5.134;2022-07-29T02:40:11;101863.72;;;16.46;100.00
60373;BME280;46216;52.220;5.134;2022-07-29T02:42:41;101863.13;;;16.43;100.00
60373;BME280;46216;52.220;5.134;2022-07-29T02:45:08;101858.84;;;16.40;100.00
60373;BME280;46216;52.220;5.134;2022-07-29T02:47:41;101856.44;;;16.37;100.00
60373;BME280;46216;52.220;5.134;2022-07-29T02:50:11;101851.38;;;16.44;100.00
60373;BME280;46216;52.220;5.134;2022-07-29T02:52:41;101860.19;;;16.46;100.00
60373;BME280;46216;52.220;5.134;2022-07-29T02:55:16;101867.53;;;16.44;100.00
60373;BME280;46216;52.220;5.134;2022-07-29T02:57:47;101867.66;;;16.42;100.00
60373;BME280;46216;52.220;5.134;2022-07-29T03:00:14;101857.63;;;16.44;100.00
60373;BME280;46216;52.220;5.134;2022-07-29T03:02:43;101851.75;;;16.39;100.00
60373;BME280;46216;52.220;5.134;2022-07-29T03:05:11;101861.53;;;16.40;100.00
60373;BME280;46216;52.220;5.134;2022-07-29T03:07:38;101864.00;;;16.32;100.00
60373;BME280;46216;52.220;5.134;2022-07-29T03:10:06;101854.22;;;16.31;100.00
60373;BME280;46216;52.220;5.134;2022-07-29T03:12:31;101859.13;;;16.37;100.00
60373;BME280;46216;52.220;5.134;2022-07-29T03:14:58;101853.59;;;16.39;100.00
60373;BME280;46216;52.220;5.134;2022-07-29T03:17:24;101849.81;;;16.41;100.00
60373;BME280;46216;52.220;5.134;2022-07-29T03:19:50;101844.44;;;16.41;100.00
60373;BME280;46216;52.220;5.134;2022-07-29T03:22:15;101849.56;;;16.33;100.00
60373;BME280;46216;52.220;5.134;2022-07-29T03:24:41;101850.69;;;16.30;100.00
60373;BME280;46216;52.220;5.134;2022-07-29T03:27:06;101838.81;;;16.33;100.00
60373;BME280;46216;52.220;5.134;2022-07-29T03:29:32;101842.84;;;16.16;100.00
60373;BME280;46216;52.220;5.134;2022-07-29T03:31:57;101842.47;;;16.32;100.00
60373;BME280;46216;52.220;5.134;2022-07-29T03:34:22;101830.63;;;16.35;100.00
60373;BME280;46216;52.220;5.134;2022-07-29T03:36:48;101832.94;;;16.28;100.00
60373;BME280;46216;52.220;5.134;2022-07-29T03:39:17;101839.94;;;16.30;100.00
60373;BME280;46216;52.220;5.134;2022-07-29T03:41:44;101841.50;;;16.33;100.00
60373;BME280;46216;52.220;5.134;2022-07-29T03:44:12;101840.53;;;16.34;100.00
60373;BME280;46216;52.220;5.134;2022-07-29T03:46:39;101830.88;;;16.20;100.00
60373;BME280;46216;52.220;5.134;2022-07-29T03:49:07;101835.66;;;16.28;100.00
60373;BME280;46216;52.220;5.134;2022-07-29T03:51:34;101832.47;;;16.34;100.00
60373;BME280;46216;52.220;5.134;2022-07-29T03:54:03;101837.09;;;16.32;100.00
60373;BME280;46216;52.220;5.134;2022-07-29T03:56:29;101831.97;;;16.29;100.00
60373;BME280;46216;52.220;5.134;2022-07-29T03:58:56;101837.84;;;16.34;100.00
60373;BME280;46216;52.220;5.134;2022-07-29T04:01:22;101837.22;;;16.30;100.00
60373;BME280;46216;52.220;5.134;2022-07-29T04:03:48;101835.50;;;16.29;100.00
60373;BME280;46216;52.220;5.134;2022-07-29T04:06:14;101836.00;;;16.35;100.00
60373;BME280;46216;52.220;5.134;2022-07-29T04:08:40;101832.72;;;16.31;100.00
60373;BME280;46216;52.220;5.134;2022-07-29T04:11:05;101841.72;;;16.30;100.00
60373;BME280;46216;52.220;5.134;2022-07-29T04:13:32;101841.97;;;16.27;100.00
60373;BME280;46216;52.220;5.134;2022-07-29T04:15:57;101839.56;;;16.24;100.00
60373;BME280;46216;52.220;5.134;2022-07-29T04:18:24;101835.66;;;16.28;100.00
60373;BME280;46216;52.220;5.134;2022-07-29T04:20:49;101832.94;;;16.28;100.00
60373;BME280;46216;52.220;5.134;2022-07-29T04:23:15;101841.03;;;16.28;100.00
60373;BME280;46216;52.220;5.134;2022-07-29T04:25:41;101828.19;;;16.31;100.00
60373;BME280;46216;52.220;5.134;2022-07-29T04:28:07;101833.06;;;16.26;100.00
60373;BME280;46216;52.220;5.134;2022-07-29T04:30:34;101833.06;;;16.26;100.00
60373;BME280;46216;52.220;5.134;2022-07-29T04:33:02;101838.19;;;16.29;100.00
60373;BME280;46216;52.220;5.134;2022-07-29T04:35:29;101827.31;;;16.31;100.00
60373;BME280;46216;52.220;5.134;2022-07-29T04:37:54;101842.13;;;16.25;100.00
60373;BME280;46216;52.220;5.134;2022-07-29T04:40:20;101824.75;;;16.29;100.00
60373;BME280;46216;52.220;5.134;2022-07-29T04:42:45;101838.09;;;16.31;100.00
60373;BME280;46216;52.220;5.134;2022-07-29T04:45:10;101834.66;;;16.29;100.00
60373;BME280;46216;52.220;5.134;2022-07-29T04:47:36;101830.50;;;16.25;100.00
60373;BME280;46216;52.220;5.134;2022-07-29T04:50:01;101838.19;;;16.29;100.00
60373;BME280;46216;52.220;5.134;2022-07-29T04:52:26;101838.34;;;16.28;100.00
60373;BME280;46216;52.220;5.134;2022-07-29T04:54:52;101825.13;;;16.25;100.00
60373;BME280;46216;52.220;5.134;2022-07-29T04:57:17;101839.56;;;16.24;100.00
60373;BME280;46216;52.220;5.134;2022-07-29T04:59:42;101839.03;;;16.30;100.00
60373;BME280;46216;52.220;5.134;2022-07-29T05:02:08;101838.19;;;16.29;100.00
60373;BME280;46216;52.220;5.134;2022-07-29T05:04:33;101847.84;;;16.32;100.00
60373;BME280;46216;52.220;5.134;2022-07-29T05:06:59;101843.47;;;16.31;100.00
60373;BME280;46216;52.220;5.134;2022-07-29T05:09:24;101838.94;;;16.31;100.00
60373;BME280;46216;52.220;5.134;2022-07-29T05:11:49;101841.88;;;16.28;100.00
60373;BME280;46216;52.220;5.134;2022-07-29T05:14:15;101842.22;;;16.35;100.00
60373;BME280;46216;52.220;5.134;2022-07-29T05:16:40;101838.56;;;16.36;100.00
60373;BME280;46216;52.220;5.134;2022-07-29T05:19:05;101844.53;;;16.40;100.00
60373;BME280;46216;52.220;5.134;2022-07-29T05:21:31;101841.75;;;16.41;100.00
60373;BME280;46216;52.220;5.134;2022-07-29T05:23:57;101841.50;;;16.44;100.00
60373;BME280;46216;52.220;5.134;2022-07-29T05:26:22;101843.44;;;16.42;100.00
60373;BME280;46216;52.220;5.134;2022-07-29T05:28:47;101846.50;;;16.49;100.00
60373;BME280;46216;52.220;5.134;2022-07-29T05:31:13;101845.38;;;16.40;100.00
60373;BME280;46216;52.220;5.134;2022-07-29T05:33:40;101839.50;;;16.46;100.00
60373;BME280;46216;52.220;5.134;2022-07-29T05:36:06;101845.63;;;16.48;100.00
60373;BME280;46216;52.220;5.134;2022-07-29T05:38:32;101842.44;;;16.54;100.00
60373;BME280;46216;52.220;5.134;2022-07-29T05:40:58;101843.41;;;16.53;100.00
60373;BME280;46216;52.220;5.134;2022-07-29T05:43:25;101847.69;;;16.56;100.00
60373;BME280;46216;52.220;5.134;2022-07-29T05:45:51;101848.34;;;16.48;100.00
60373;BME280;46216;52.220;5.134;2022-07-29T05:48:16;101851.63;;;16.52;100.00
60373;BME280;46216;52.220;5.134;2022-07-29T05:50:41;101850.03;;;16.49;100.00
60373;BME280;46216;52.220;5.134;2022-07-29T05:53:07;101854.31;;;16.52;100.00
60373;BME280;46216;52.220;5.134;2022-07-29T05:55:32;101852.34;;;16.54;100.00
60373;BME280;46216;52.220;5.134;2022-07-29T05:57:57;101859.44;;;16.55;100.00
60373;BME280;46216;52.220;5.134;2022-07-29T06:00:23;101855.53;;;16.59;100.00
60373;BME280;46216;52.220;5.134;2022-07-29T06:02:48;101863.59;;;16.59;100.00
60373;BME280;46216;52.220;5.134;2022-07-29T06:05:13;101863.19;;;16.64;100.00
60373;BME280;46216;52.220;5.134;2022-07-29T06:07:40;101861.75;;;16.60;100.00
60373;BME280;46216;52.220;5.134;2022-07-29T06:10:06;101863.44;;;16.61;100.00
60373;BME280;46216;52.220;5.134;2022-07-29T06:12:31;101856.38;;;16.60;100.00
60373;BME280;46216;52.220;5.134;2022-07-29T06:14:56;101855.03;;;16.54;100.00
60373;BME280;46216;52.220;5.134;2022-07-29T06:17:22;101856.13;;;16.63;100.00
60373;BME280;46216;52.220;5.134;2022-07-29T06:19:48;101856.72;;;16.66;100.00
60373;BME280;46216;52.220;5.134;2022-07-29T06:22:15;101857.47;;;16.68;100.00
60373;BME280;46216;52.220;5.134;2022-07-29T06:24:41;101856.84;;;16.76;100.00
60373;BME280;46216;52.220;5.134;2022-07-29T06:27:11;101852.69;;;16.72;100.00
60373;BME280;46216;52.220;5.134;2022-07-29T06:29:37;101851.69;;;16.84;100.00
60373;BME280;46216;52.220;5.134;2022-07-29T06:32:03;101857.31;;;16.81;100.00
60373;BME280;46216;52.220;5.134;2022-07-29T06:34:28;101851.47;;;16.76;100.00
60373;BME280;46216;52.220;5.134;2022-07-29T06:36:54;101860.69;;;16.94;100.00
60373;BME280;46216;52.220;5.134;2022-07-29T06:39:19;101861.28;;;16.98;100.00
60373;BME280;46216;52.220;5.134;2022-07-29T06:41:49;101872.31;;;17.06;100.00
60373;BME280;46216;52.220;5.134;2022-07-29T06:44:15;101877.63;;;17.17;100.00
60373;BME280;46216;52.220;5.134;2022-07-29T06:46:41;101865.25;;;17.26;100.00
60373;BME280;46216;52.220;5.134;2022-07-29T06:49:07;101866.00;;;17.17;100.00
60373;BME280;46216;52.220;5.134;2022-07-29T06:51:32;101869.31;;;17.41;100.00
60373;BME280;46216;52.220;5.134;2022-07-29T06:53:58;101875.50;;;17.53;100.00
60373;BME280;46216;52.220;5.134;2022-07-29T06:56:23;101878.31;;;17.52;100.00
60373;BME280;46216;52.220;5.134;2022-07-29T06:58:48;101887.25;;;17.52;100.00
60373;BME280;46216;52.220;5.134;2022-07-29T07:01:14;101890.28;;;17.59;100.00
60373;BME280;46216;52.220;5.134;2022-07-29T07:03:40;101893.97;;;17.58;100.00
60373;BME280;46216;52.220;5.134;2022-07-29T07:06:06;101893.22;;;17.56;100.00
60373;BME280;46216;52.220;5.134;2022-07-29T07:08:32;101901.88;;;17.70;100.00
60373;BME280;46216;52.220;5.134;2022-07-29T07:10:57;101905.41;;;17.71;100.00
60373;BME280;46216;52.220;5.134;2022-07-29T07:13:24;101898.09;;;17.62;100.00
60373;BME280;46216;52.220;5.134;2022-07-29T07:15:49;101896.00;;;17.65;100.00
60373;BME280;46216;52.220;5.134;2022-07-29T07:18:16;101893.72;;;17.61;100.00
60373;BME280;46216;52.220;5.134;2022-07-29T07:20:41;101896.06;;;17.54;100.00
60373;BME280;46216;52.220;5.134;2022-07-29T07:23:07;101895.47;;;17.50;100.00
60373;BME280;46216;52.220;5.134;2022-07-29T07:25:32;101892.78;;;17.50;100.00
60373;BME280;46216;52.220;5.134;2022-07-29T07:27:58;101895.16;;;17.65;100.00
60373;BME280;46216;52.220;5.134;2022-07-29T07:30:23;101897.06;;;17.74;100.00
60373;BME280;46216;52.220;5.134;2022-07-29T07:32:48;101884.31;;;17.76;100.00
60373;BME280;46216;52.220;5.134;2022-07-29T07:35:14;101893.06;;;17.89;100.00
60373;BME280;46216;52.220;5.134;2022-07-29T07:37:39;101886.44;;;17.93;100.00
60373;BME280;46216;52.220;5.134;2022-07-29T07:40:10;101889.16;;;18.03;100.00
60373;BME280;46216;52.220;5.134;2022-07-29T07:42:37;101880.28;;;18.22;100.00
60373;BME280;46216;52.220;5.134;2022-07-29T07:45:02;101870.66;;;18.29;100.00
60373;BME280;46216;52.220;5.134;2022-07-29T07:47:28;101867.84;;;18.31;100.00
60373;BME280;46216;52.220;5.134;2022-07-29T07:49:53;101870.28;;;18.43;100.00
60373;BME280;46216;52.220;5.134;2022-07-29T07:52:20;101878.97;;;18.57;100.00
60373;BME280;46216;52.220;5.134;2022-07-29T07:54:46;101877.44;;;18.64;100.00
60373;BME280;46216;52.220;5.134;2022-07-29T07:57:13;101870.47;;;18.71;100.00
60373;BME280;46216;52.220;5.134;2022-07-29T07:59:39;101862.28;;;18.73;100.00
60373;BME280;46216;52.220;5.134;2022-07-29T08:02:05;101862.44;;;18.81;100.00
60373;BME280;46216;52.220;5.134;2022-07-29T08:04:31;101853.13;;;18.64;100.00
60373;BME280;46216;52.220;5.134;2022-07-29T08:06:57;101863.88;;;18.75;100.00
60373;BME280;46216;52.220;5.134;2022-07-29T08:09:23;101862.16;;;18.94;100.00
60373;BME280;46216;52.220;5.134;2022-07-29T08:11:49;101867.69;;;19.02;100.00
60373;BME280;46216;52.220;5.134;2022-07-29T08:14:14;101868.16;;;19.07;100.00
60373;BME280;46216;52.220;5.134;2022-07-29T08:16:40;101871.97;;;19.14;100.00
60373;BME280;46216;52.220;5.134;2022-07-29T08:19:06;101866.00;;;19.20;100.00
60373;BME280;46216;52.220;5.134;2022-07-29T08:21:31;101861.75;;;19.27;100.00
60373;BME280;46216;52.220;5.134;2022-07-29T08:23:57;101867.13;;;19.37;100.00
60373;BME280;46216;52.220;5.134;2022-07-29T08:26:42;101865.28;;;19.37;100.00
60373;BME280;46216;52.220;5.134;2022-07-29T08:29:07;101864.00;;;19.42;100.00
60373;BME280;46216;52.220;5.134;2022-07-29T08:31:32;101871.09;;;19.43;100.00
60373;BME280;46216;52.220;5.134;2022-07-29T08:33:58;101865.13;;;19.49;100.00
60373;BME280;46216;52.220;5.134;2022-07-29T08:36:25;101863.81;;;19.53;100.00
60373;BME280;46216;52.220;5.134;2022-07-29T08:38:51;101872.81;;;19.63;100.00
60373;BME280;46216;52.220;5.134;2022-07-29T08:41:17;101871.38;;;19.59;100.00
60373;BME280;46216;52.220;5.134;2022-07-29T08:43:44;101872.22;;;19.69;100.00
60373;BME280;46216;52.220;5.134;2022-07-29T08:46:10;101868.22;;;19.73;100.00
60373;BME280;46216;52.220;5.134;2022-07-29T08:48:36;101874.91;;;19.79;100.00
60373;BME280;46216;52.220;5.134;2022-07-29T08:51:02;101874.47;;;19.83;100.00
60373;BME280;46216;52.220;5.134;2022-07-29T08:53:28;101881.16;;;19.89;100.00
60373;BME280;46216;52.220;5.134;2022-07-29T08:55:53;101874.69;;;20.00;100.00
60373;BME280;46216;52.220;5.134;2022-07-29T08:58:20;101880.66;;;20.03;100.00
60373;BME280;46216;52.220;5.134;2022-07-29T09:00:51;101884.41;;;19.93;100.00
60373;BME280;46216;52.220;5.134;2022-07-29T09:03:19;101878.94;;;20.12;100.00
60373;BME280;46216;52.220;5.134;2022-07-29T09:05:46;101881.66;;;20.12;100.00
60373;BME280;46216;52.220;5.134;2022-07-29T09:08:13;101871.91;;;20.19;100.00
60373;BME280;46216;52.220;5.134;2022-07-29T09:10:39;101874.84;;;20.36;100.00
60373;BME280;46216;52.220;5.134;2022-07-29T09:13:04;101870.03;;;20.29;100.00
60373;BME280;46216;52.220;5.134;2022-07-29T09:15:30;101868.16;;;20.30;100.00
60373;BME280;46216;52.220;5.134;2022-07-29T09:17:55;101857.75;;;20.35;100.00
60373;BME280;46216;52.220;5.134;2022-07-29T09:20:23;101863.47;;;20.60;100.00
60373;BME280;46216;52.220;5.134;2022-07-29T09:22:50;101855.59;;;20.66;100.00
60373;BME280;46216;52.220;5.134;2022-07-29T09:25:37;101847.94;;;20.79;100.00
60373;BME280;46216;52.220;5.134;2022-07-29T09:28:08;101845.72;;;20.93;100.00
60373;BME280;46216;52.220;5.134;2022-07-29T09:30:34;101848.25;;;20.94;100.00
60373;BME280;46216;52.220;5.134;2022-07-29T09:33:01;101839.34;;;20.84;100.00
60373;BME280;46216;52.220;5.134;2022-07-29T09:35:28;101841.38;;;21.00;100.00
60373;BME280;46216;52.220;5.134;2022-07-29T09:37:54;101843.53;;;21.14;100.00
60373;BME280;46216;52.220;5.134;2022-07-29T09:40:21;101845.13;;;21.25;100.00
60373;BME280;46216;52.220;5.134;2022-07-29T09:42:46;101850.56;;;21.25;100.00
60373;BME280;46216;52.220;5.134;2022-07-29T09:45:32;101844.28;;;21.24;100.00
60373;BME280;46216;52.220;5.134;2022-07-29T09:47:58;101847.47;;;21.20;100.00
60373;BME280;46216;52.220;5.134;2022-07-29T09:50:36;101850.88;;;21.22;100.00
60373;BME280;46216;52.220;5.134;2022-07-29T09:53:01;101855.66;;;21.28;100.00
60373;BME280;46216;52.220;5.134;2022-07-29T09:55:27;101852.19;;;21.36;100.00
60373;BME280;46216;52.220;5.134;2022-07-29T09:57:52;101851.09;;;21.46;100.00
60373;BME280;46216;52.220;5.134;2022-07-29T10:00:19;101856.06;;;21.51;100.00
60373;BME280;46216;52.220;5.134;2022-07-29T10:02:47;101857.16;;;21.66;100.00
60373;BME280;46216;52.220;5.134;2022-07-29T10:05:22;101852.78;;;21.73;100.00
60373;BME280;46216;52.220;5.134;2022-07-29T10:07:51;101862.34;;;21.78;100.00
60373;BME280;46216;52.220;5.134;2022-07-29T10:10:30;101856.78;;;21.87;100.00
60373;BME280;46216;52.220;5.134;2022-07-29T10:13:03;101850.56;;;21.95;100.00
60373;BME280;46216;52.220;5.134;2022-07-29T10:15:31;101853.09;;;21.96;100.00
60373;BME280;46216;52.220;5.134;2022-07-29T10:17:58;101851.63;;;22.02;100.00
60373;BME280;46216;52.220;5.134;2022-07-29T10:20:25;101859.69;;;21.94;100.00
60373;BME280;46216;52.220;5.134;2022-07-29T10:22:51;101854.16;;;22.04;100.00
60373;BME280;46216;52.220;5.134;2022-07-29T10:25:17;101845.16;;;22.03;100.00
60373;BME280;46216;52.220;5.134;2022-07-29T10:27:44;101848.19;;;22.00;100.00
60373;BME280;46216;52.220;5.134;2022-07-29T10:30:10;101843.28;;;22.30;100.00
60373;BME280;46216;52.220;5.134;2022-07-29T10:43:54;101837.97;;;22.79;100.00
60373;BME280;46216;52.220;5.134;2022-07-29T10:46:21;101832.56;;;22.87;100.00
60373;BME280;46216;52.220;5.134;2022-07-29T10:52:08;101847.03;;;23.12;100.00
60373;BME280;46216;52.220;5.134;2022-07-29T10:57:19;101851.59;;;22.87;100.00
60373;BME280;46216;52.220;5.134;2022-07-29T11:05:01;101838.31;;;22.92;100.00
60373;BME280;46216;52.220;5.134;2022-07-29T11:07:28;101848.22;;;23.01;100.00
60373;BME280;46216;52.220;5.134;2022-07-29T11:31:16;101839.72;;;23.29;100.00
60373;BME280;46216;52.220;5.134;2022-07-29T11:33:44;101834.44;;;23.03;100.00
60373;BME280;46216;52.220;5.134;2022-07-29T11:36:12;101836.69;;;23.16;100.00
60373;BME280;46216;52.220;5.134;2022-07-29T11:38:38;101837.53;;;23.41;100.00
60373;BME280;46216;52.220;5.134;2022-07-29T11:41:30;101830.66;;;23.77;100.00
60373;BME280;46216;52.220;5.134;2022-07-29T11:44:01;101831.16;;;23.81;100.00
60373;BME280;46216;52.220;5.134;2022-07-29T11:46:49;101834.81;;;24.13;100.00
60373;BME280;46216;52.220;5.134;2022-07-29T11:49:25;101826.66;;;24.04;100.00
60373;BME280;46216;52.220;5.134;2022-07-29T11:51:56;101833.00;;;24.05;100.00
60373;BME280;46216;52.220;5.134;2022-07-29T11:54:26;101818.03;;;24.40;100.00
60373;BME280;46216;52.220;5.134;2022-07-29T11:56:52;101822.53;;;24.17;100.00
60373;BME280;46216;52.220;5.134;2022-07-29T11:59:19;101825.06;;;24.26;100.00
60373;BME280;46216;52.220;5.134;2022-07-29T12:01:58;101831.75;;;24.16;100.00
60373;BME280;46216;52.220;5.134;2022-07-29T12:04:24;101824.41;;;24.55;100.00
60373;BME280;46216;52.220;5.134;2022-07-29T12:06:52;101822.13;;;24.67;100.00
60373;BME280;46216;52.220;5.134;2022-07-29T12:09:19;101831.03;;;24.84;100.00
60373;BME280;46216;52.220;5.134;2022-07-29T12:11:46;101821.31;;;24.90;100.00
60373;BME280;46216;52.220;5.134;2022-07-29T12:14:31;101828.94;;;24.94;100.00
60373;BME280;46216;52.220;5.134;2022-07-29T12:16:57;101826.63;;;25.29;100.00
60373;BME280;46216;52.220;5.134;2022-07-29T12:19:23;101826.34;;;25.39;100.00
60373;BME280;46216;52.220;5.134;2022-07-29T12:21:55;101831.06;;;25.45;100.00
60373;BME280;46216;52.220;5.134;2022-07-29T12:24:20;101835.47;;;25.31;100.00
60373;BME280;46216;52.220;5.134;2022-07-29T12:26:54;101835.50;;;25.46;100.00
60373;BME280;46216;52.220;5.134;2022-07-29T12:29:20;101833.19;;;25.58;100.00
60373;BME280;46216;52.220;5.134;2022-07-29T12:31:46;101832.78;;;25.61;100.00
60373;BME280;46216;52.220;5.134;2022-07-29T12:34:13;101827.38;;;25.90;100.00
60373;BME280;46216;52.220;5.134;2022-07-29T12:36:40;101837.16;;;26.00;100.00
60373;BME280;46216;52.220;5.134;2022-07-29T12:39:05;101816.03;;;26.23;100.00
60373;BME280;46216;52.220;5.134;2022-07-29T12:41:31;101819.41;;;26.25;100.00
60373;BME280;46216;52.220;5.134;2022-07-29T12:43:56;101825.38;;;26.14;100.00
60373;BME280;46216;52.220;5.134;2022-07-29T12:46:22;101822.06;;;26.18;100.00
60373;BME280;46216;52.220;5.134;2022-07-29T12:48:51;101825.63;;;26.49;100.00
60373;BME280;46216;52.220;5.134;2022-07-29T12:51:31;101826.59;;;26.26;100.00
60373;BME280;46216;52.220;5.134;2022-07-29T12:54:04;101818.47;;;26.33;100.00
60373;BME280;46216;52.220;5.134;2022-07-29T12:56:30;101819.31;;;26.18;100.00
60373;BME280;46216;52.220;5.134;2022-07-29T12:58:55;101816.88;;;26.24;100.00
60373;BME280;46216;52.220;5.134;2022-07-29T13:01:21;101815.16;;;26.37;100.00
60373;BME280;46216;52.220;5.134;2022-07-29T13:03:47;101821.13;;;26.62;100.00
60373;BME280;46216;52.220;5.134;2022-07-29T13:09:18;101813.16;;;26.82;100.00
60373;BME280;46216;52.220;5.134;2022-07-29T13:11:49;101819.38;;;26.55;100.00
60373;BME280;46216;52.220;5.134;2022-07-29T13:14:34;101815.88;;;26.82;100.00
60373;BME280;46216;52.220;5.134;2022-07-29T13:17:05;101809.38;;;26.83;100.00
60373;BME280;46216;52.220;5.134;2022-07-29T13:19:34;101819.59;;;26.75;100.00
60373;BME280;46216;52.220;5.134;2022-07-29T13:22:00;101817.31;;;26.78;100.00
60373;BME280;46216;52.220;5.134;2022-07-29T13:24:26;101820.16;;;26.49;100.00
60373;BME280;46216;52.220;5.134;2022-07-29T13:26:51;101814.91;;;26.90;100.00
60373;BME280;46216;52.220;5.134;2022-07-29T13:29:17;101810.00;;;27.07;100.00
60373;BME280;46216;52.220;5.134;2022-07-29T13:31:42;101818.41;;;27.27;100.00
60373;BME280;46216;52.220;5.134;2022-07-29T13:34:07;101815.63;;;27.20;100.00
60373;BME280;46216;52.220;5.134;2022-07-29T13:36:33;101813.16;;;27.25;100.00
60373;BME280;46216;52.220;5.134;2022-07-29T13:38:58;101817.06;;;27.44;100.00